Time;durP1;ratioP1;P1;durP2;ratioP2;P2;SDS_P1;SDS_P2;PMS_P1;PMS_P2;Temp;Humidity;BMP_temperature;BMP_pressure;BME280_temperature;BME280_humidity;BME280_pressure;Samples;Min_cycle;Max_cycle;Signal;HPM_P1;HPM_P2
2022/11/24 00:00:08;;;;;;;8.98;2.55;;;;;;;;;;5017463;28;20170;-65
2022/11/24 00:02:34;;;;;;;10.65;2.65;;;;;;;;;;5021401;28;21541;-65
2022/11/24 00:05:00;;;;;;;10.40;2.63;;;;;;;;;;4998757;28;20397;-65
2022/11/24 00:07:26;;;;;;;10.57;2.72;;;;;;;;;;5022279;28;20329;-66
2022/11/24 00:09:52;;;;;;;9.30;3.10;;;;;;;;;;5017932;28;20041;-65
2022/11/24 00:12:18;;;;;;;;;;;;;;;;;;5021586;28;20050;-66
2022/11/24 00:14:45;;;;;;;8.73;2.80;;;;;;;;;;5017765;28;20407;-65
2022/11/24 00:17:11;;;;;;;8.55;2.55;;;;;;;;;;5017000;28;20589;-65
2022/11/24 00:19:38;;;;;;;8.60;2.22;;;;;;;;;;4998323;28;20029;-66
2022/11/24 00:22:04;;;;;;;11.52;3.00;;;;;;;;;;5016866;28;20029;-65
2022/11/24 00:24:30;;;;;;;8.77;2.63;;;;;;;;;;5001425;28;20029;-66
2022/11/24 00:26:56;;;;;;;9.63;3.17;;;;;;;;;;4997974;28;20616;-66
2022/11/24 00:29:22;;;;;;;11.18;3.10;;;;;;;;;;5017941;28;20025;-66
2022/11/24 00:31:48;;;;;;;9.00;2.50;;;;;;;;;;5000198;28;20405;-65
2022/11/24 00:34:15;;;;;;;8.85;2.45;;;;;;;;;;5020357;28;20033;-67
2022/11/24 00:36:41;;;;;;;7.57;2.60;;;;;;;;;;5000315;28;20051;-66
2022/11/24 00:39:10;;;;;;;10.70;2.47;;;;;;;;;;4999122;28;20659;-66
2022/11/24 00:41:37;;;;;;;9.27;2.20;;;;;;;;;;4999610;28;20028;-65
2022/11/24 00:44:03;;;;;;;8.32;2.50;;;;;;;;;;5000602;28;20372;-67
2022/11/24 00:46:29;;;;;;;;;;;;;;;;;;5022662;28;20028;-65
2022/11/24 00:48:56;;;;;;;8.75;2.80;;;;;;;;;;5017182;28;20707;-65
2022/11/24 00:51:21;;;;;;;;;;;;;;;;;;5001765;28;20028;-65
2022/11/24 00:53:48;;;;;;;8.75;2.67;;;;;;;;;;5019168;28;20349;-67
2022/11/24 00:56:14;;;;;;;10.00;2.38;;;;;;;;;;5013629;28;20398;-69
2022/11/24 00:58:40;;;;;;;;;;;;;;;;;;5018483;28;20399;-67
2022/11/24 01:01:07;;;;;;;7.32;1.60;;;;;;;;;;5017326;28;19919;-67
2022/11/24 01:03:34;;;;;;;7.55;1.65;;;;;;;;;;5018631;28;20029;-67
2022/11/24 01:06:00;;;;;;;;;;;;;;;;;;5018641;28;20391;-67
2022/11/24 01:08:26;;;;;;;6.50;1.58;;;;;;;;;;5019805;28;19912;-67
2022/11/24 01:10:52;;;;;;;5.65;1.50;;;;;;;;;;5014995;28;20045;-69
2022/11/24 01:13:18;;;;;;;5.65;1.35;;;;;;;;;;5019267;28;20037;-67
2022/11/24 01:15:44;;;;;;;7.45;1.48;;;;;;;;;;5021390;28;20041;-67
2022/11/24 01:18:12;;;;;;;6.95;1.65;;;;;;;;;;5012656;28;21079;-67
2022/11/24 01:20:38;;;;;;;9.13;1.60;;;;;;;;;;5017740;28;20040;-67
2022/11/24 01:23:07;;;;;;;6.70;1.30;;;;;;;;;;5015884;28;20040;-67
2022/11/24 01:25:39;;;;;;;6.80;1.70;;;;;;;;;;5000972;28;20039;-67
2022/11/24 01:28:05;;;;;;;7.30;1.70;;;;;;;;;;5016166;28;20036;-67
2022/11/24 01:30:31;;;;;;;7.63;1.77;;;;;;;;;;5019249;28;20432;-67
2022/11/24 01:32:57;;;;;;;6.78;1.98;;;;;;;;;;5012229;28;20312;-67
2022/11/24 01:35:23;;;;;;;9.15;2.50;;;;;;;;;;5001127;28;20033;-68
2022/11/24 01:37:50;;;;;;;10.32;2.35;;;;;;;;;;5018950;28;20375;-67
2022/11/24 01:40:16;;;;;;;8.02;2.20;;;;;;;;;;5016125;28;20025;-67
2022/11/24 01:42:49;;;;;;;8.25;2.40;;;;;;;;;;5023667;28;20025;-67
2022/11/24 01:45:31;;;;;;;8.18;2.20;;;;;;;;;;5004380;28;20063;-67
2022/11/24 01:47:57;;;;;;;8.52;2.25;;;;;;;;;;5009637;28;21640;-67
2022/11/24 01:50:23;;;;;;;7.05;2.05;;;;;;;;;;5020062;28;20134;-67
2022/11/24 01:52:52;;;;;;;8.43;2.05;;;;;;;;;;5018807;28;20036;-66
2022/11/24 01:55:23;;;;;;;11.13;2.00;;;;;;;;;;5000610;28;20056;-67
2022/11/24 01:57:53;;;;;;;6.10;1.77;;;;;;;;;;5026755;28;20039;-67
2022/11/24 02:00:19;;;;;;;7.43;2.00;;;;;;;;;;5023145;28;20029;-67
2022/11/24 02:02:46;;;;;;;8.07;2.22;;;;;;;;;;5019627;28;20048;-67
2022/11/24 02:05:21;;;;;;;10.48;2.38;;;;;;;;;;4997065;28;20039;-67
2022/11/24 02:07:47;;;;;;;8.20;2.28;;;;;;;;;;5003333;28;20033;-67
2022/11/24 02:10:14;;;;;;;6.32;1.73;;;;;;;;;;5019208;28;20032;-66
2022/11/24 02:12:42;;;;;;;9.25;2.22;;;;;;;;;;5021405;28;20434;-66
2022/11/24 02:15:09;;;;;;;10.40;1.90;;;;;;;;;;5000389;28;20250;-66
2022/11/24 02:17:35;;;;;;;;;;;;;;;;;;5022675;28;20021;-66
2022/11/24 02:20:03;;;;;;;8.57;2.50;;;;;;;;;;5018107;28;19917;-66
2022/11/24 02:22:32;;;;;;;9.10;2.05;;;;;;;;;;5026218;28;20119;-66
2022/11/24 02:25:28;;;;;;;6.70;1.95;;;;;;;;;;5019699;28;20037;-66
2022/11/24 02:27:55;;;;;;;7.63;1.90;;;;;;;;;;5001023;28;20116;-66
2022/11/24 02:30:21;;;;;;;7.82;2.05;;;;;;;;;;5024787;28;20312;-66
2022/11/24 02:32:47;;;;;;;8.52;1.88;;;;;;;;;;5025122;28;20055;-66
2022/11/24 02:35:14;;;;;;;9.18;2.30;;;;;;;;;;5024010;28;20025;-66
2022/11/24 02:37:40;;;;;;;;;;;;;;;;;;5023906;28;20181;-66
2022/11/24 02:40:06;;;;;;;7.40;1.90;;;;;;;;;;5021923;28;19924;-66
2022/11/24 02:42:35;;;;;;;7.60;1.77;;;;;;;;;;5021948;28;20023;-66
2022/11/24 02:45:01;;;;;;;8.77;1.50;;;;;;;;;;5019833;28;20112;-66
2022/11/24 02:47:28;;;;;;;6.88;1.40;;;;;;;;;;5023695;28;20144;-66
2022/11/24 02:49:54;;;;;;;7.78;1.77;;;;;;;;;;5006051;28;20434;-66
2022/11/24 02:52:20;;;;;;;7.43;1.83;;;;;;;;;;5018899;28;20071;-65
2022/11/24 02:54:46;;;;;;;7.63;1.85;;;;;;;;;;5024911;28;21019;-65
2022/11/24 02:57:12;;;;;;;11.55;1.63;;;;;;;;;;5019416;28;20092;-66
2022/11/24 02:59:38;;;;;;;10.25;2.08;;;;;;;;;;5024807;28;20033;-67
2022/11/24 03:02:04;;;;;;;11.32;1.92;;;;;;;;;;5021390;28;20030;-66
2022/11/24 03:04:31;;;;;;;13.38;2.30;;;;;;;;;;5024566;28;20033;-65
2022/11/24 03:06:57;;;;;;;10.57;1.90;;;;;;;;;;5003666;28;20498;-65
2022/11/24 03:09:23;;;;;;;10.10;1.85;;;;;;;;;;5024297;28;20444;-65
2022/11/24 03:11:49;;;;;;;10.75;1.95;;;;;;;;;;5031496;28;20501;-67
2022/11/24 03:14:15;;;;;;;12.18;2.08;;;;;;;;;;5009616;28;20032;-68
2022/11/24 03:16:41;;;;;;;14.40;2.22;;;;;;;;;;5004528;28;20095;-67
2022/11/24 03:19:09;;;;;;;11.20;2.20;;;;;;;;;;5001654;28;20666;-67
2022/11/24 03:21:35;;;;;;;11.32;2.30;;;;;;;;;;5006080;28;20064;-67
2022/11/24 03:24:02;;;;;;;11.60;2.00;;;;;;;;;;5003258;28;20091;-67
2022/11/24 03:26:28;;;;;;;11.57;2.38;;;;;;;;;;5004987;28;20570;-67
2022/11/24 03:28:56;;;;;;;14.02;2.30;;;;;;;;;;5003025;28;20136;-68
2022/11/24 03:31:22;;;;;;;10.15;2.28;;;;;;;;;;5023218;28;20031;-67
2022/11/24 03:33:48;;;;;;;13.77;2.60;;;;;;;;;;5024094;28;20416;-68
2022/11/24 03:36:15;;;;;;;19.33;2.40;;;;;;;;;;5025375;28;20025;-68
2022/11/24 03:38:41;;;;;;;;;;;;;;;;;;5023314;28;20043;-67
2022/11/24 03:41:07;;;;;;;17.20;2.45;;;;;;;;;;5003119;28;20378;-67
2022/11/24 03:43:34;;;;;;;14.23;2.65;;;;;;;;;;5024008;28;20110;-68
2022/11/24 03:46:03;;;;;;;15.40;2.63;;;;;;;;;;4998647;28;20044;-67
2022/11/24 03:48:29;;;;;;;14.27;2.80;;;;;;;;;;5004898;28;20202;-68
2022/11/24 03:50:56;;;;;;;12.32;2.13;;;;;;;;;;5022071;28;20110;-67
2022/11/24 03:53:23;;;;;;;12.10;2.78;;;;;;;;;;5021069;28;20487;-67
2022/11/24 03:55:49;;;;;;;14.13;2.88;;;;;;;;;;5005770;28;20033;-67
2022/11/24 03:58:15;;;;;;;11.65;2.33;;;;;;;;;;5006414;28;20060;-66
2022/11/24 04:00:42;;;;;;;13.35;2.67;;;;;;;;;;5013668;28;20876;-67
2022/11/24 04:03:08;;;;;;;11.43;2.35;;;;;;;;;;5022792;28;20033;-68
2022/11/24 04:05:35;;;;;;;10.93;2.20;;;;;;;;;;5005952;28;20503;-66
2022/11/24 04:08:02;;;;;;;10.93;2.22;;;;;;;;;;5001300;28;20040;-67
2022/11/24 04:10:29;;;;;;;10.77;1.88;;;;;;;;;;5022043;28;20040;-66
2022/11/24 04:12:55;;;;;;;10.30;2.00;;;;;;;;;;5018241;28;20493;-66
2022/11/24 04:15:21;;;;;;;11.23;2.45;;;;;;;;;;5000929;28;20447;-67
2022/11/24 04:17:49;;;;;;;9.80;1.85;;;;;;;;;;5005443;28;20569;-67
2022/11/24 04:20:16;;;;;;;11.77;2.25;;;;;;;;;;5004060;28;20033;-67
2022/11/24 04:22:43;;;;;;;11.77;2.38;;;;;;;;;;5023205;28;20028;-66
2022/11/24 04:25:09;;;;;;;;;;;;;;;;;;5018276;28;20043;-67
2022/11/24 04:27:35;;;;;;;12.68;2.45;;;;;;;;;;5022544;28;19913;-67
2022/11/24 04:30:02;;;;;;;12.32;2.38;;;;;;;;;;5017043;28;20025;-66
2022/11/24 04:32:28;;;;;;;11.18;2.10;;;;;;;;;;5022999;28;20130;-66
2022/11/24 04:34:54;;;;;;;10.45;1.95;;;;;;;;;;5021115;28;20202;-67
2022/11/24 04:37:21;;;;;;;11.85;2.17;;;;;;;;;;5022596;28;20032;-68
2022/11/24 04:39:47;;;;;;;;;;;;;;;;;;5000558;28;20341;-68
2022/11/24 04:42:13;;;;;;;10.52;2.53;;;;;;;;;;4997838;28;19913;-68
2022/11/24 04:44:39;;;;;;;12.40;2.13;;;;;;;;;;5003858;28;20124;-68
2022/11/24 04:47:05;;;;;;;14.60;2.75;;;;;;;;;;5023704;28;20032;-68
2022/11/24 04:49:32;;;;;;;12.05;2.78;;;;;;;;;;5022599;28;20612;-68
2022/11/24 04:51:59;;;;;;;15.40;2.90;;;;;;;;;;5000592;28;20029;-67
2022/11/24 04:54:25;;;;;;;13.40;2.47;;;;;;;;;;5016445;28;20547;-66
2022/11/24 04:56:51;;;;;;;12.75;2.05;;;;;;;;;;5019669;28;20604;-66
2022/11/24 04:59:18;;;;;;;15.88;3.05;;;;;;;;;;5020710;28;20039;-67
2022/11/24 05:01:45;;;;;;;11.13;2.78;;;;;;;;;;5021951;28;20071;-67
2022/11/24 05:04:12;;;;;;;15.20;2.78;;;;;;;;;;5000407;28;20041;-68
2022/11/24 05:06:38;;;;;;;14.75;2.85;;;;;;;;;;5021446;28;20491;-68
2022/11/24 05:09:05;;;;;;;13.40;2.70;;;;;;;;;;5016958;28;20029;-68
2022/11/24 05:11:31;;;;;;;10.07;2.40;;;;;;;;;;5002407;28;20055;-68
2022/11/24 05:13:57;;;;;;;12.52;2.40;;;;;;;;;;5017283;28;20348;-68
2022/11/24 05:16:24;;;;;;;15.23;2.75;;;;;;;;;;5002538;28;20083;-67
2022/11/24 05:18:50;;;;;;;11.63;2.42;;;;;;;;;;5017340;28;20132;-66
2022/11/24 05:21:16;;;;;;;14.90;2.90;;;;;;;;;;5024339;28;20843;-66
2022/11/24 05:23:43;;;;;;;10.75;2.20;;;;;;;;;;5003362;28;20025;-66
2022/11/24 05:26:09;;;;;;;11.38;2.22;;;;;;;;;;5018239;28;20067;-67
2022/11/24 05:28:35;;;;;;;13.07;2.90;;;;;;;;;;5000768;28;20129;-66
2022/11/24 05:31:02;;;;;;;13.30;2.60;;;;;;;;;;5020894;28;20132;-68
2022/11/24 05:33:32;;;;;;;14.05;2.70;;;;;;;;;;4999749;28;20033;-67
2022/11/24 05:36:05;;;;;;;11.90;2.22;;;;;;;;;;5016912;28;20026;-66
2022/11/24 05:38:31;;;;;;;15.55;3.63;;;;;;;;;;5022069;28;20025;-66
2022/11/24 05:41:05;;;;;;;12.75;2.60;;;;;;;;;;4998354;28;20040;-66
2022/11/24 05:43:31;;;;;;;16.73;2.90;;;;;;;;;;5001000;28;20159;-67
2022/11/24 05:46:00;;;;;;;16.55;3.28;;;;;;;;;;5014740;28;20112;-66
2022/11/24 05:48:26;;;;;;;14.80;2.90;;;;;;;;;;5017570;28;20032;-67
2022/11/24 05:50:56;;;;;;;13.82;2.70;;;;;;;;;;5018103;28;20558;-66
2022/11/24 05:53:22;;;;;;;13.75;2.80;;;;;;;;;;5015450;28;20119;-66
2022/11/24 05:55:49;;;;;;;14.63;2.60;;;;;;;;;;5016599;28;20082;-68
2022/11/24 05:58:16;;;;;;;16.08;2.80;;;;;;;;;;5019523;28;20040;-66
2022/11/24 06:00:42;;;;;;;15.43;2.78;;;;;;;;;;5017994;28;20340;-69
2022/11/24 06:03:08;;;;;;;13.52;3.28;;;;;;;;;;5014968;28;20036;-67
2022/11/24 06:05:34;;;;;;;12.85;2.92;;;;;;;;;;5018433;28;20064;-66
2022/11/24 06:08:00;;;;;;;14.05;2.50;;;;;;;;;;5013914;28;20122;-66
2022/11/24 06:10:27;;;;;;;14.50;3.00;;;;;;;;;;4996938;28;20146;-67
2022/11/24 06:12:53;;;;;;;11.38;3.10;;;;;;;;;;4992137;28;20510;-66
2022/11/24 06:15:19;;;;;;;14.02;4.47;;;;;;;;;;4993976;28;20475;-67
2022/11/24 06:17:52;;;;;;;23.27;11.13;;;;;;;;;;4994934;28;20044;-67
2022/11/24 06:20:18;;;;;;;45.67;28.48;;;;;;;;;;4992767;28;20041;-67
2022/11/24 06:22:44;;;;;;;97.63;66.07;;;;;;;;;;4995754;28;20734;-66
2022/11/24 06:25:10;;;;;;;182.18;114.90;;;;;;;;;;4990532;28;20325;-66
2022/11/24 06:27:36;;;;;;;160.93;102.15;;;;;;;;;;4994236;28;20592;-67
2022/11/24 06:30:03;;;;;;;159.05;98.68;;;;;;;;;;4991664;28;20037;-67
2022/11/24 06:32:43;;;;;;;157.45;97.25;;;;;;;;;;5006988;28;20727;-67
